createdAt,value
2022-08-06T00:00:12.317Z,53.50
2022-08-06T00:02:44.816Z,53.60
2022-08-06T00:05:17.973Z,51.20
2022-08-06T00:07:54.455Z,51.20
2022-08-06T00:10:29.338Z,51.20
2022-08-06T00:13:02.129Z,51.60
2022-08-06T00:16:09.047Z,51.50
2022-08-06T00:18:28.328Z,52.00
2022-08-06T00:20:59.061Z,52.40
2022-08-06T00:23:52.491Z,53.30
2022-08-06T00:26:22.244Z,51.30
2022-08-06T00:28:59.920Z,51.20
2022-08-06T00:31:31.064Z,52.70
2022-08-06T00:34:05.893Z,53.20
2022-08-06T00:36:38.943Z,52.50
2022-08-06T00:39:13.142Z,53.20
2022-08-06T00:41:46.536Z,53.60
2022-08-06T00:44:30.945Z,53.70
2022-08-06T00:47:11.716Z,53.20
2022-08-06T00:49:54.809Z,55.10
2022-08-06T00:52:25.998Z,55.40
2022-08-06T00:54:57.371Z,55.20
2022-08-06T00:57:30.413Z,54.70
2022-08-06T01:00:01.431Z,55.00
2022-08-06T01:02:34.006Z,55.70
2022-08-06T01:06:04.226Z,55.70
2022-08-06T01:07:58.276Z,55.10
2022-08-06T01:10:42.485Z,55.50
2022-08-06T01:13:23.634Z,55.80
2022-08-06T01:16:08.519Z,55.50
2022-08-06T01:18:52.890Z,56.20
2022-08-06T01:22:31.239Z,56.40
2022-08-06T01:25:13.412Z,56.10
2022-08-06T01:27:56.643Z,56.00
2022-08-06T01:30:33.039Z,55.90
2022-08-06T01:33:15.815Z,55.80
2022-08-06T01:36:00.107Z,55.40
2022-08-06T01:38:37.069Z,56.40
2022-08-06T01:41:54.976Z,55.50
2022-08-06T01:44:37.077Z,55.30
2022-08-06T01:47:15.610Z,56.00
2022-08-06T01:50:00.493Z,56.20
2022-08-06T01:52:40.870Z,54.70
2022-08-06T01:55:16.169Z,54.60
2022-08-06T01:58:18.880Z,55.00
2022-08-06T02:00:49.798Z,54.30
2022-08-06T02:03:25.567Z,55.20
2022-08-06T02:05:58.746Z,54.50
2022-08-06T02:08:37.348Z,54.10
2022-08-06T02:12:01.403Z,55.30
2022-08-06T02:14:06.332Z,55.60
2022-08-06T02:16:44.913Z,56.40
2022-08-06T02:19:18.970Z,55.90
2022-08-06T02:22:04.433Z,55.60
2022-08-06T02:24:38.230Z,56.20
2022-08-06T02:27:12.046Z,57.40
2022-08-06T02:30:05.541Z,57.60
2022-08-06T02:32:43.000Z,57.20
2022-08-06T02:35:15.135Z,56.80
2022-08-06T02:38:01.195Z,57.00
2022-08-06T02:40:40.462Z,57.60
2022-08-06T02:43:16.097Z,58.10
2022-08-06T02:45:59.354Z,57.80
2022-08-06T02:48:36.033Z,57.90
2022-08-06T02:51:29.424Z,58.10
2022-08-06T02:54:08.862Z,58.20
2022-08-06T02:56:48.504Z,58.20
2022-08-06T02:59:39.190Z,58.50
2022-08-06T03:02:15.032Z,59.10
2022-08-06T03:04:56.751Z,59.20
2022-08-06T03:07:31.471Z,59.60
2022-08-06T03:10:12.645Z,59.70
2022-08-06T03:12:44.883Z,60.10
2022-08-06T03:15:59.960Z,60.50
2022-08-06T03:18:11.086Z,60.30
2022-08-06T03:20:48.160Z,61.30
2022-08-06T03:23:20.059Z,61.60
2022-08-06T03:25:54.144Z,61.80
2022-08-06T03:28:25.686Z,62.30
2022-08-06T03:30:57.180Z,62.10
2022-08-06T03:33:53.073Z,63.00
2022-08-06T03:36:22.834Z,62.90
2022-08-06T03:39:01.931Z,63.20
2022-08-06T03:41:39.840Z,62.90
2022-08-06T03:44:11.852Z,63.20
2022-08-06T03:46:47.233Z,63.60
2022-08-06T03:49:26.484Z,64.30
2022-08-06T03:52:15.893Z,65.00
2022-08-06T03:54:51.679Z,64.90
2022-08-06T03:57:29.348Z,65.50
2022-08-06T04:00:04.720Z,65.60
2022-08-06T04:02:46.066Z,65.90
2022-08-06T04:05:23.157Z,66.10
2022-08-06T04:07:57.785Z,66.10
2022-08-06T04:10:34.828Z,66.00
2022-08-06T04:13:58.676Z,66.60
2022-08-06T04:16:02.037Z,67.80
2022-08-06T04:18:41.772Z,67.90
2022-08-06T04:21:22.194Z,68.20
2022-08-06T04:24:10.848Z,68.10
2022-08-06T04:26:45.872Z,68.90
2022-08-06T04:29:21.416Z,69.20
2022-08-06T04:32:12.375Z,69.50
2022-08-06T04:36:03.577Z,70.40
2022-08-06T04:37:40.577Z,70.40
2022-08-06T04:40:27.389Z,71.10
2022-08-06T04:43:08.287Z,71.80
2022-08-06T04:46:18.068Z,72.30
2022-08-06T04:48:39.597Z,73.30
2022-08-06T04:52:35.976Z,73.70
2022-08-06T04:54:02.302Z,75.00
2022-08-06T04:56:37.430Z,75.20
2022-08-06T04:59:09.133Z,75.70
2022-08-06T05:01:53.610Z,76.50
2022-08-06T05:04:32.966Z,77.10
2022-08-06T05:07:10.844Z,77.90
2022-08-06T05:09:53.900Z,78.00
2022-08-06T05:12:31.355Z,78.70
2022-08-06T05:15:06.167Z,78.60
2022-08-06T05:17:48.395Z,78.90
2022-08-06T05:20:27.560Z,79.80
2022-08-06T05:23:08.855Z,80.30
2022-08-06T05:25:54.131Z,80.50
2022-08-06T05:28:29.217Z,80.50
2022-08-06T05:31:00.809Z,80.90
2022-08-06T05:33:37.367Z,81.00
2022-08-06T05:36:11.746Z,81.40
2022-08-06T05:38:59.390Z,82.10
2022-08-06T05:41:33.590Z,82.80
2022-08-06T05:44:10.667Z,83.50
2022-08-06T05:46:45.403Z,84.00
2022-08-06T05:49:57.373Z,84.50
2022-08-06T05:52:17.529Z,85.20
2022-08-06T05:54:54.377Z,85.70
2022-08-06T05:57:33.393Z,86.30
2022-08-06T06:00:41.573Z,86.50
2022-08-06T06:03:08.443Z,86.50
2022-08-06T06:06:16.132Z,86.90
2022-08-06T06:08:57.217Z,87.90
2022-08-06T06:11:47.177Z,88.10
2022-08-06T06:14:44.361Z,88.50
2022-08-06T06:17:48.178Z,88.80
2022-08-06T06:21:03.876Z,89.40
2022-08-06T06:23:20.322Z,90.00
2022-08-06T06:26:05.058Z,90.20
2022-08-06T06:28:47.089Z,90.50
2022-08-06T06:32:04.222Z,90.70
2022-08-06T06:34:25.067Z,90.90
2022-08-06T06:37:01.502Z,91.30
2022-08-06T06:39:39.508Z,91.70
2022-08-06T06:42:27.649Z,91.90
2022-08-06T06:46:06.958Z,92.30
2022-08-06T06:48:11.836Z,92.50
2022-08-06T06:50:48.812Z,92.80
2022-08-06T06:53:23.774Z,93.20
2022-08-06T06:56:01.570Z,93.50
2022-08-06T06:58:43.155Z,93.80
2022-08-06T07:01:28.982Z,94.10
2022-08-06T07:04:02.501Z,94.40
2022-08-06T07:06:44.477Z,94.80
2022-08-06T07:09:39.042Z,95.00
2022-08-06T07:12:14.449Z,95.40
2022-08-06T07:14:58.918Z,95.90
2022-08-06T07:17:45.196Z,96.30
2022-08-06T07:20:26.241Z,96.70
2022-08-06T07:24:07.834Z,97.00
2022-08-06T07:25:59.538Z,97.50
2022-08-06T07:28:31.320Z,98.00
2022-08-06T07:31:09.286Z,98.20
2022-08-06T07:34:00.934Z,98.70
2022-08-06T07:36:37.591Z,99.00
2022-08-06T07:39:14.396Z,99.30
2022-08-06T07:42:07.869Z,99.70
2022-08-06T07:44:54.998Z,99.90
2022-08-06T07:47:41.450Z,99.90
2022-08-06T07:50:25.154Z,99.90
2022-08-06T07:52:57.507Z,99.90
2022-08-06T07:55:31.476Z,99.90
2022-08-06T07:58:08.905Z,99.90
2022-08-06T08:00:49.406Z,99.90
2022-08-06T08:03:56.301Z,99.90
2022-08-06T08:06:32.054Z,99.90
2022-08-06T08:09:07.011Z,99.90
2022-08-06T08:12:25.737Z,99.90
2022-08-06T08:14:37.720Z,99.90
2022-08-06T08:17:09.284Z,99.90
2022-08-06T08:19:40.026Z,99.90
2022-08-06T08:22:15.834Z,99.90
2022-08-06T08:24:54.176Z,99.90
2022-08-06T08:27:27.331Z,99.90
2022-08-06T08:29:59.836Z,99.90
2022-08-06T08:32:30.730Z,99.90
2022-08-06T08:35:01.717Z,99.90
2022-08-06T08:37:34.098Z,99.90
2022-08-06T08:40:05.187Z,99.90
2022-08-06T08:42:44.200Z,99.90
2022-08-06T08:45:17.535Z,99.90
2022-08-06T08:47:53.673Z,99.90
2022-08-06T08:50:32.472Z,99.90
2022-08-06T08:53:06.865Z,99.90
2022-08-06T08:57:11.342Z,99.90
2022-08-06T08:58:40.143Z,99.90
2022-08-06T09:01:51.582Z,99.90
2022-08-06T09:04:09.313Z,99.90
2022-08-06T09:06:42.070Z,99.90
2022-08-06T09:09:16.684Z,99.90
2022-08-06T09:12:05.667Z,99.90
2022-08-06T09:14:40.448Z,99.90
2022-08-06T09:17:18.125Z,99.90
2022-08-06T09:20:08.267Z,99.90
2022-08-06T09:22:42.268Z,99.90
2022-08-06T09:25:40.965Z,99.90
2022-08-06T09:28:15.940Z,99.90
2022-08-06T09:31:01.639Z,99.90
2022-08-06T09:34:29.181Z,99.90
2022-08-06T09:36:30.449Z,99.90
2022-08-06T09:39:05.095Z,99.90
2022-08-06T09:41:50.487Z,99.90
2022-08-06T09:44:35.045Z,99.90
2022-08-06T09:47:16.547Z,99.90
2022-08-06T09:50:00.394Z,99.90
2022-08-06T09:52:31.816Z,99.90
2022-08-06T09:55:02.879Z,99.90
2022-08-06T09:57:48.840Z,99.90
2022-08-06T10:00:30.117Z,99.90
2022-08-06T10:04:03.987Z,99.90
2022-08-06T10:06:10.295Z,99.90
2022-08-06T10:08:42.286Z,99.90
2022-08-06T10:11:13.060Z,99.90
2022-08-06T10:13:49.477Z,99.90
2022-08-06T10:16:29.134Z,99.90
2022-08-06T10:19:18.237Z,99.90
2022-08-06T10:21:50.834Z,99.90
2022-08-06T10:24:25.815Z,99.90
2022-08-06T10:27:15.236Z,99.90
2022-08-06T10:29:48.541Z,99.90
2022-08-06T10:32:27.213Z,99.90
2022-08-06T10:35:11.941Z,99.90
2022-08-06T10:37:50.056Z,99.90
2022-08-06T10:40:30.396Z,99.90
2022-08-06T10:43:06.814Z,99.90
2022-08-06T10:45:48.614Z,99.90
2022-08-06T10:49:00.843Z,99.90
2022-08-06T10:51:14.327Z,99.90
2022-08-06T10:54:00.789Z,99.90
2022-08-06T10:56:45.792Z,99.90
2022-08-06T10:59:19.020Z,99.90
2022-08-06T11:02:05.161Z,99.90
2022-08-06T11:04:49.360Z,99.90
2022-08-06T11:08:08.969Z,99.90
2022-08-06T11:11:19.937Z,99.90
2022-08-06T11:14:03.898Z,99.90
2022-08-06T11:16:37.105Z,99.90
2022-08-06T11:19:09.666Z,99.90
2022-08-06T11:22:02.357Z,99.90
2022-08-06T11:24:37.907Z,99.90
2022-08-06T11:27:36.297Z,99.90
2022-08-06T11:30:26.449Z,99.90
2022-08-06T11:32:59.391Z,99.90
2022-08-06T11:35:51.357Z,99.90
2022-08-06T11:38:59.242Z,99.90
2022-08-06T11:41:54.666Z,99.90
2022-08-06T11:44:31.641Z,99.90
2022-08-06T11:47:15.840Z,99.90
2022-08-06T11:49:47.576Z,99.90
2022-08-06T11:52:45.706Z,99.90
2022-08-06T11:55:22.445Z,99.90
2022-08-06T11:58:23.105Z,99.90
2022-08-06T12:01:03.621Z,99.90
2022-08-06T12:03:53.268Z,99.90
2022-08-06T12:06:28.795Z,99.90
2022-08-06T12:09:23.398Z,99.90
2022-08-06T12:12:44.530Z,99.90
2022-08-06T12:15:59.784Z,99.90
2022-08-06T12:18:31.954Z,99.90
2022-08-06T12:21:03.722Z,99.90
2022-08-06T12:23:56.361Z,99.90
2022-08-06T12:26:36.154Z,99.90
2022-08-06T12:29:09.433Z,99.90
2022-08-06T12:31:50.129Z,99.90
2022-08-06T12:34:32.274Z,99.90
2022-08-06T12:37:03.194Z,99.90
2022-08-06T12:39:59.866Z,99.90
2022-08-06T12:42:54.107Z,99.90
2022-08-06T12:45:33.023Z,99.90
2022-08-06T12:48:17.566Z,99.90
2022-08-06T12:50:48.303Z,99.90
2022-08-06T12:53:21.626Z,99.90
2022-08-06T12:55:56.504Z,99.90
2022-08-06T12:58:42.016Z,99.90
2022-08-06T13:02:07.645Z,99.90
2022-08-06T13:04:17.144Z,99.90
2022-08-06T13:06:49.563Z,99.90
2022-08-06T13:09:35.069Z,99.90
2022-08-06T13:12:29.408Z,99.90
2022-08-06T13:15:10.235Z,99.90
2022-08-06T13:18:13.422Z,99.90
2022-08-06T13:20:58.714Z,99.90
2022-08-06T13:23:35.175Z,99.90
2022-08-06T13:26:26.164Z,99.90
2022-08-06T13:30:28.907Z,99.90
2022-08-06T13:32:11.166Z,99.90
2022-08-06T13:35:00.452Z,99.90
2022-08-06T13:37:55.944Z,99.90
2022-08-06T13:40:47.331Z,99.90
2022-08-06T13:43:39.677Z,99.90
2022-08-06T13:46:17.246Z,99.90
2022-08-06T13:48:53.396Z,99.90
2022-08-06T13:51:27.893Z,99.90
2022-08-06T13:54:04.117Z,99.90
2022-08-06T13:56:48.741Z,99.90
2022-08-06T13:59:24.402Z,99.90
2022-08-06T14:02:12.402Z,99.90
2022-08-06T14:04:50.354Z,99.90
2022-08-06T14:07:21.751Z,99.90
2022-08-06T14:10:08.185Z,99.90
2022-08-06T14:12:40.620Z,99.90
2022-08-06T14:15:12.869Z,99.90
2022-08-06T14:17:46.105Z,99.90
2022-08-06T14:20:24.052Z,99.90
2022-08-06T14:22:57.231Z,99.90
2022-08-06T14:25:59.931Z,99.90
2022-08-06T14:28:22.163Z,99.90
2022-08-06T14:30:55.720Z,99.90
2022-08-06T14:33:36.692Z,99.90
2022-08-06T14:36:09.968Z,99.90
2022-08-06T14:38:42.549Z,99.90
2022-08-06T14:41:50.797Z,99.90
2022-08-06T14:44:39.297Z,99.90
2022-08-06T14:47:21.245Z,99.90
2022-08-06T14:50:02.293Z,99.90
2022-08-06T14:52:36.496Z,99.90
2022-08-06T14:55:10.431Z,99.90
2022-08-06T14:58:04.401Z,95.30
2022-08-06T15:00:38.193Z,91.70
2022-08-06T15:03:13.568Z,86.10
2022-08-06T15:06:04.442Z,81.10
2022-08-06T15:08:36.033Z,76.50
2022-08-06T15:11:14.188Z,71.70
2022-08-06T15:13:51.963Z,70.60
2022-08-06T15:16:47.834Z,68.10
2022-08-06T15:19:29.698Z,68.30
2022-08-06T15:22:06.133Z,64.60
2022-08-06T15:24:38.742Z,62.60
2022-08-06T15:27:14.391Z,61.00
2022-08-06T15:30:01.596Z,59.50
2022-08-06T15:32:32.367Z,61.10
2022-08-06T15:35:03.136Z,58.20
2022-08-06T15:37:52.482Z,58.30
2022-08-06T15:40:29.749Z,57.70
2022-08-06T15:43:00.946Z,58.40
2022-08-06T15:45:49.882Z,57.30
2022-08-06T15:48:28.819Z,56.20
2022-08-06T15:51:30.349Z,54.60
2022-08-06T15:53:53.861Z,56.80
2022-08-06T15:56:39.126Z,54.40
2022-08-06T15:59:20.338Z,56.70
2022-08-06T16:02:02.650Z,55.00
2022-08-06T16:04:36.727Z,53.60
2022-08-06T16:07:09.063Z,51.60
2022-08-06T16:10:03.051Z,50.60
2022-08-06T16:12:35.737Z,51.80
2022-08-06T16:15:09.442Z,51.60
2022-08-06T16:18:05.906Z,51.90
2022-08-06T16:20:33.847Z,52.10
2022-08-06T16:23:06.945Z,53.10
2022-08-06T16:26:15.594Z,53.80
2022-08-06T16:28:48.804Z,51.90
2022-08-06T16:31:19.724Z,49.80
2022-08-06T16:33:56.475Z,48.70
2022-08-06T16:36:32.246Z,47.80
2022-08-06T16:39:04.092Z,50.80
2022-08-06T16:41:59.217Z,51.90
2022-08-06T16:44:34.252Z,49.50
2022-08-06T16:47:06.672Z,49.70
2022-08-06T16:50:07.689Z,46.90
2022-08-06T16:52:42.770Z,46.70
2022-08-06T16:55:20.660Z,47.20
2022-08-06T16:57:57.702Z,49.50
2022-08-06T17:01:00.686Z,47.80
2022-08-06T17:03:42.605Z,47.30
2022-08-06T17:06:17.609Z,47.00
2022-08-06T17:08:52.677Z,45.90
2022-08-06T17:11:46.061Z,47.30
2022-08-06T17:14:17.112Z,46.10
2022-08-06T17:16:51.282Z,45.30
2022-08-06T17:19:22.033Z,45.90
2022-08-06T17:22:00.496Z,46.30
2022-08-06T17:24:38.029Z,47.30
2022-08-06T17:27:10.665Z,43.50
2022-08-06T17:29:45.600Z,45.00
2022-08-06T17:32:29.862Z,44.20
2022-08-06T17:35:08.907Z,44.00
2022-08-06T17:37:44.109Z,45.30
2022-08-06T17:40:19.220Z,47.70
2022-08-06T17:43:04.734Z,46.70
2022-08-06T17:45:36.915Z,44.90
2022-08-06T17:48:09.616Z,46.60
2022-08-06T17:50:56.043Z,46.60
2022-08-06T17:53:53.408Z,46.60
2022-08-06T17:56:29.564Z,46.00
2022-08-06T17:59:16.908Z,44.60
2022-08-06T18:01:50.336Z,45.00
2022-08-06T18:04:31.297Z,47.40
2022-08-06T18:07:12.202Z,46.10
2022-08-06T18:10:16.894Z,46.60
2022-08-06T18:12:49.611Z,44.80
2022-08-06T18:15:21.299Z,46.10
2022-08-06T18:18:04.269Z,46.30
2022-08-06T18:20:41.843Z,44.30
2022-08-06T18:23:21.575Z,43.70
2022-08-06T18:25:57.873Z,44.90
2022-08-06T18:28:36.142Z,44.40
2022-08-06T18:31:12.330Z,43.10
2022-08-06T18:33:48.195Z,44.10
2022-08-06T18:36:32.739Z,45.00
2022-08-06T18:39:12.986Z,44.10
2022-08-06T18:41:57.673Z,45.70
2022-08-06T18:44:29.616Z,45.90
2022-08-06T18:47:03.696Z,42.90
2022-08-06T18:49:50.061Z,45.60
2022-08-06T18:52:24.964Z,46.70
2022-08-06T18:54:57.639Z,46.40
2022-08-06T18:58:04.652Z,46.20
2022-08-06T19:00:33.364Z,43.60
2022-08-06T19:03:10.771Z,46.30
2022-08-06T19:05:50.622Z,45.60
2022-08-06T19:08:29.221Z,45.50
2022-08-06T19:11:05.710Z,47.70
2022-08-06T19:14:17.181Z,45.40
2022-08-06T19:16:31.009Z,46.30
2022-08-06T19:19:01.820Z,45.30
2022-08-06T19:21:35.246Z,46.60
2022-08-06T19:24:07.234Z,45.20
2022-08-06T19:26:57.285Z,46.80
2022-08-06T19:29:58.094Z,45.40
2022-08-06T19:32:28.556Z,46.20
2022-08-06T19:35:00.724Z,45.50
2022-08-06T19:37:59.335Z,44.80
2022-08-06T19:40:43.793Z,47.50
2022-08-06T19:44:28.107Z,47.20
2022-08-06T19:46:34.499Z,47.20
2022-08-06T19:48:59.428Z,47.90
2022-08-06T19:52:03.472Z,47.90
2022-08-06T19:54:35.735Z,48.10
2022-08-06T19:57:09.321Z,48.60
2022-08-06T20:00:48.036Z,52.10
2022-08-06T20:02:35.727Z,49.70
2022-08-06T20:05:21.737Z,50.20
2022-08-06T20:08:31.708Z,51.30
2022-08-06T20:10:46.992Z,51.10
2022-08-06T20:13:23.476Z,52.10
2022-08-06T20:15:54.333Z,52.20
2022-08-06T20:18:26.836Z,51.50
2022-08-06T20:21:00.470Z,51.20
2022-08-06T20:23:40.578Z,50.30
2022-08-06T20:26:35.193Z,51.90
2022-08-06T20:29:21.435Z,49.80
2022-08-06T20:31:55.090Z,50.60
2022-08-06T20:34:29.571Z,51.10
2022-08-06T20:37:00.652Z,51.70
2022-08-06T20:39:32.042Z,52.20
2022-08-06T20:42:11.246Z,53.70
2022-08-06T20:44:47.308Z,50.90
2022-08-06T20:47:45.952Z,51.30
2022-08-06T20:50:16.271Z,50.30
2022-08-06T20:52:49.071Z,49.80
2022-08-06T20:55:20.221Z,48.50
2022-08-06T20:57:59.422Z,49.10
2022-08-06T21:00:30.109Z,49.30
2022-08-06T21:03:28.611Z,49.70
2022-08-06T21:05:53.716Z,49.40
2022-08-06T21:08:27.277Z,51.70
2022-08-06T21:11:01.308Z,50.60
2022-08-06T21:13:48.887Z,49.30
2022-08-06T21:16:29.198Z,48.80
2022-08-06T21:19:06.875Z,49.80
2022-08-06T21:21:41.822Z,51.00
2022-08-06T21:24:13.110Z,49.80
2022-08-06T21:26:50.948Z,49.80
2022-08-06T21:30:09.353Z,48.30
2022-08-06T21:32:13.570Z,50.90
2022-08-06T21:34:45.453Z,48.20
2022-08-06T21:37:29.358Z,46.90
2022-08-06T21:40:15.856Z,47.50
2022-08-06T21:43:00.226Z,49.00
2022-08-06T21:45:50.402Z,47.90
2022-08-06T21:48:30.025Z,45.10
2022-08-06T21:51:01.108Z,48.80
2022-08-06T21:53:53.066Z,49.60
2022-08-06T21:56:37.256Z,46.90
2022-08-06T21:59:10.832Z,43.30
2022-08-06T22:02:10.556Z,46.20
2022-08-06T22:04:38.910Z,44.40
2022-08-06T22:07:24.940Z,45.10
2022-08-06T22:09:57.468Z,45.10
2022-08-06T22:12:38.728Z,46.90
2022-08-06T22:15:14.710Z,46.80
2022-08-06T22:18:02.105Z,45.90
2022-08-06T22:20:34.269Z,45.70
2022-08-06T22:23:05.053Z,46.00
2022-08-06T22:25:42.111Z,45.90
2022-08-06T22:28:23.798Z,45.50
2022-08-06T22:31:05.518Z,45.90
2022-08-06T22:33:45.683Z,44.10
2022-08-06T22:36:34.732Z,44.70
2022-08-06T22:39:07.382Z,45.10
2022-08-06T22:41:42.379Z,45.00
2022-08-06T22:44:42.847Z,44.00
2022-08-06T22:47:21.786Z,43.30
2022-08-06T22:50:01.268Z,43.30
2022-08-06T22:53:00.906Z,43.60
2022-08-06T22:55:23.850Z,42.30
2022-08-06T22:58:04.951Z,41.90
2022-08-06T23:00:49.745Z,43.10
2022-08-06T23:03:22.119Z,43.30
2022-08-06T23:05:52.953Z,43.60
2022-08-06T23:08:31.717Z,42.70
2022-08-06T23:11:02.587Z,43.00
2022-08-06T23:13:43.790Z,43.10
2022-08-06T23:16:20.879Z,43.70
2022-08-06T23:18:59.384Z,42.80
2022-08-06T23:21:50.681Z,42.10
2022-08-06T23:24:32.852Z,43.00
2022-08-06T23:27:04.490Z,44.00
2022-08-06T23:30:10.563Z,41.80
2022-08-06T23:32:30.307Z,42.20
2022-08-06T23:35:07.795Z,41.80
2022-08-06T23:37:39.624Z,42.10
2022-08-06T23:40:16.155Z,41.80
2022-08-06T23:42:50.112Z,42.10
2022-08-06T23:45:25.042Z,42.70
2022-08-06T23:47:56.895Z,43.80
2022-08-06T23:50:34.351Z,41.50
2022-08-06T23:53:05.875Z,42.40
2022-08-06T23:55:57.606Z,42.60
2022-08-06T23:58:28.836Z,42.20
